createdAt,value
2017-11-26T00:00:00.341Z,71.50
2017-11-26T00:02:27.316Z,71.50
2017-11-26T00:04:54.693Z,71.50
2017-11-26T00:07:21.655Z,71.50
2017-11-26T00:09:48.642Z,71.50
2017-11-26T00:12:15.633Z,71.50
2017-11-26T00:14:42.620Z,71.50
2017-11-26T00:17:09.604Z,71.50
2017-11-26T00:19:37.312Z,71.50
2017-11-26T00:22:04.280Z,71.30
2017-11-26T13:19:33.199Z,72.50
2017-11-26T13:22:00.176Z,72.60
2017-11-26T13:24:27.146Z,72.60
2017-11-26T13:26:54.102Z,72.70
2017-11-26T13:29:21.108Z,72.70
2017-11-26T13:31:48.079Z,72.70
2017-11-26T13:34:15.810Z,72.40
2017-11-26T13:36:42.798Z,72.30
2017-11-26T13:39:09.777Z,72.30
2017-11-26T13:41:36.740Z,72.20
2017-11-26T13:44:03.741Z,72.10
2017-11-26T13:46:30.718Z,72.10
2017-11-26T13:48:58.085Z,72.20
2017-11-26T13:51:25.074Z,72.10
2017-11-26T13:53:52.035Z,71.80
2017-11-26T13:56:19.013Z,71.90
2017-11-26T13:58:45.984Z,72.10
2017-11-26T14:01:12.957Z,72.30
2017-11-26T14:03:39.941Z,72.40
2017-11-26T14:06:07.321Z,72.40
2017-11-26T14:08:34.302Z,72.40
2017-11-26T14:11:01.261Z,72.40
2017-11-26T14:13:28.230Z,72.30
2017-11-26T14:15:55.206Z,72.20
2017-11-26T14:18:22.176Z,72.40
2017-11-26T14:20:49.565Z,72.10
2017-11-26T14:23:17.290Z,72.20
2017-11-26T14:25:44.661Z,72.10
2017-11-26T14:28:11.630Z,72.00
2017-11-26T14:30:38.616Z,71.90
2017-11-26T14:33:20.742Z,71.80
2017-11-26T14:35:47.735Z,72.00
2017-11-26T14:38:14.695Z,72.10
2017-11-26T14:40:42.446Z,72.10
2017-11-26T14:43:09.597Z,72.10
2017-11-26T14:45:37.336Z,72.30
2017-11-26T14:48:05.099Z,72.30
2017-11-26T14:50:32.759Z,72.30
2017-11-26T14:53:00.282Z,72.10
2017-11-26T14:55:27.651Z,72.00
2017-11-26T14:57:55.260Z,71.90
2017-11-26T15:00:23.371Z,71.70
2017-11-26T15:02:50.729Z,71.70
2017-11-26T15:05:18.137Z,71.60
2017-11-26T15:07:45.324Z,71.60
2017-11-26T15:10:13.166Z,71.60
2017-11-26T15:12:40.582Z,71.70
2017-11-26T15:15:07.963Z,71.60
2017-11-26T15:20:04.835Z,71.60
2017-11-26T15:22:31.985Z,71.60
2017-11-26T15:24:58.946Z,71.70
2017-11-26T15:27:25.921Z,71.70
2017-11-26T15:29:53.324Z,71.70
2017-11-26T15:32:21.393Z,71.80
2017-11-26T15:34:48.359Z,71.80
2017-11-26T15:37:15.758Z,71.90
2017-11-26T15:39:43.263Z,71.90
2017-11-26T15:42:10.258Z,71.90
2017-11-26T15:44:37.568Z,71.90
2017-11-26T15:47:04.667Z,71.90
2017-11-26T15:49:32.173Z,71.90
2017-11-26T15:51:59.553Z,71.80
2017-11-26T15:54:27.868Z,71.80
2017-11-26T15:56:55.157Z,71.90
2017-11-26T15:59:22.560Z,71.90
2017-11-26T16:01:49.925Z,71.80
2017-11-26T16:04:17.731Z,71.80
2017-11-26T16:06:45.478Z,71.80
2017-11-26T16:09:13.060Z,71.80
2017-11-26T16:11:40.335Z,71.70
2017-11-26T16:14:08.322Z,71.80
2017-11-26T16:16:35.741Z,71.80
2017-11-26T16:19:03.439Z,71.80
2017-11-26T16:21:30.444Z,71.80
2017-11-26T16:23:57.804Z,71.80
2017-11-26T16:26:24.826Z,71.70
2017-11-26T16:28:51.803Z,71.80
2017-11-26T16:31:19.562Z,71.80
2017-11-26T16:33:47.019Z,71.70
2017-11-26T16:36:14.168Z,71.70
2017-11-26T16:38:42.244Z,71.70
2017-11-26T16:41:10.313Z,71.70
2017-11-26T16:43:37.771Z,71.70
2017-11-26T16:46:05.413Z,71.70
2017-11-26T16:48:32.931Z,71.70
2017-11-26T16:51:04.637Z,71.70
2017-11-26T16:53:34.353Z,71.80
2017-11-26T16:56:01.725Z,71.80
2017-11-26T16:58:28.945Z,71.70
2017-11-26T17:00:56.031Z,71.70
2017-11-26T17:03:23.014Z,71.90
2017-11-26T17:05:50.639Z,71.90
2017-11-26T17:08:17.629Z,71.90
2017-11-26T17:10:46.228Z,71.80
2017-11-26T17:13:13.641Z,71.70
2017-11-26T17:15:41.779Z,71.80
2017-11-26T17:18:10.212Z,71.80
2017-11-26T17:20:37.518Z,71.90
2017-11-26T17:23:04.933Z,71.90
2017-11-26T17:25:32.459Z,72.10
2017-11-26T17:27:59.681Z,72.10
2017-11-26T17:30:27.447Z,72.20
2017-11-26T17:32:54.844Z,72.00
2017-11-26T17:35:22.365Z,72.00
2017-11-26T17:37:51.778Z,71.60
2017-11-26T17:40:19.427Z,72.00
2017-11-26T17:42:48.097Z,72.00
2017-11-26T17:45:16.961Z,72.10
2017-11-26T17:47:44.563Z,72.10
2017-11-26T17:50:12.574Z,72.10
2017-11-26T17:52:40.995Z,72.20
2017-11-26T17:55:09.087Z,72.10
2017-11-26T17:57:38.207Z,72.10
2017-11-26T18:00:05.539Z,72.10
2017-11-26T18:02:32.561Z,72.10
2017-11-26T18:04:59.741Z,72.10
2017-11-26T18:07:27.604Z,72.00
2017-11-26T18:09:54.605Z,72.10
2017-11-26T18:12:21.594Z,72.10
2017-11-26T18:14:48.983Z,72.10
2017-11-26T18:17:17.071Z,72.10
2017-11-26T18:19:44.800Z,72.00
2017-11-26T18:22:11.978Z,72.00
2017-11-26T18:24:39.744Z,71.90
2017-11-26T18:27:09.292Z,71.90
2017-11-26T18:29:38.722Z,71.90
2017-11-26T18:32:08.165Z,72.00
2017-11-26T18:34:37.050Z,72.00
2017-11-26T18:37:06.615Z,72.00
2017-11-26T18:39:35.847Z,71.90
2017-11-26T18:42:04.640Z,71.80
2017-11-26T18:44:32.946Z,71.90
2017-11-26T18:47:01.563Z,71.90
2017-11-26T18:49:30.236Z,71.90
2017-11-26T18:51:59.210Z,72.00
2017-11-26T18:54:28.253Z,72.00
2017-11-26T18:56:57.248Z,71.90
2017-11-26T18:59:25.722Z,71.90
2017-11-26T19:01:54.181Z,71.90
2017-11-26T19:04:24.310Z,71.90
2017-11-26T19:06:52.837Z,71.90
2017-11-26T19:09:21.203Z,71.90
2017-11-26T19:11:49.991Z,72.00
2017-11-26T19:14:18.224Z,72.10
2017-11-26T19:16:47.733Z,72.10
2017-11-26T19:19:17.081Z,71.90
2017-11-26T19:21:45.602Z,72.10
2017-11-26T19:24:13.846Z,72.10
2017-11-26T19:26:41.243Z,72.10
2017-11-26T19:29:08.709Z,72.10
2017-11-26T19:31:37.999Z,72.10
2017-11-26T19:34:06.575Z,72.10
2017-11-26T19:36:35.240Z,72.10
2017-11-26T19:39:03.712Z,72.10
2017-11-26T19:41:32.513Z,72.10
2017-11-26T19:44:01.410Z,72.00
2017-11-26T19:46:29.423Z,72.10
2017-11-26T19:48:57.075Z,72.00
2017-11-26T19:51:24.975Z,72.10
2017-11-26T19:53:51.976Z,72.00
2017-11-26T19:56:20.576Z,71.90
2017-11-26T19:58:48.652Z,71.90
2017-11-26T20:01:16.038Z,72.00
2017-11-26T20:03:43.256Z,72.00
2017-11-26T20:06:11.761Z,72.00
2017-11-26T20:08:40.280Z,72.00
2017-11-26T20:11:09.315Z,72.00
2017-11-26T20:13:38.160Z,72.00
2017-11-26T20:16:06.913Z,72.00
2017-11-26T20:18:33.975Z,72.00
2017-11-26T20:21:02.691Z,72.00
2017-11-26T20:23:29.894Z,71.90
2017-11-26T20:25:58.297Z,71.70
2017-11-26T20:34:50.363Z,71.60
2017-11-26T21:09:47.497Z,64.10
2017-11-26T21:12:16.088Z,66.00
2017-11-26T21:14:44.324Z,68.50
2017-11-26T21:17:11.617Z,70.30
2017-11-26T21:19:38.765Z,71.40
2017-11-26T21:22:06.223Z,72.30
